Time;durP1;ratioP1;P1;durP2;ratioP2;P2;SDS_P1;SDS_P2;PMS_P1;PMS_P2;Temp;Humidity;BMP_temperature;BMP_pressure;BME280_temperature;BME280_humidity;BME280_pressure;Samples;Min_cycle;Max_cycle;Signal;HPM_P1;HPM_P2
2022/09/04 00:01:59;;;;;;;0.97;0.87;;;;;;;17.89;100.00;101597.03;5030251;28;20434;-74
2022/09/04 00:04:30;;;;;;;1.03;0.93;;;;;;;18.00;100.00;101605.22;5035300;28;20438;-74
2022/09/04 00:07:08;;;;;;;1.63;1.13;;;;;;;18.14;100.00;101607.75;5030762;28;20458;-74
2022/09/04 00:10:11;;;;;;;1.17;1.07;;;;;;;18.10;100.00;101603.84;5034146;28;20425;-74
2022/09/04 00:13:10;;;;;;;3.30;1.10;;;;;;;17.47;100.00;101518.22;4993827;28;20454;-74
2022/09/04 00:15:42;;;;;;;0.93;0.77;;;;;;;17.08;100.00;101480.53;5030779;28;20426;-74
2022/09/04 00:18:24;;;;;;;5.60;1.07;;;;;;;17.79;100.00;101592.97;5034968;28;20567;-74
2022/09/04 00:20:56;;;;;;;2.33;1.20;;;;;;;17.68;100.00;101591.00;5036018;28;20439;-74
2022/09/04 00:23:43;;;;;;;1.77;1.10;;;;;;;17.97;100.00;101621.16;5026397;28;20433;-74
2022/09/04 00:26:09;;;;;;;2.23;1.13;;;;;;;18.10;100.00;101625.56;5033841;28;20429;-74
2022/09/04 00:28:40;;;;;;;1.43;1.17;;;;;;;17.86;100.00;101597.50;5033639;28;20473;-74
2022/09/04 00:31:12;;;;;;;1.90;1.10;;;;;;;18.00;100.00;101628.84;5030620;28;20291;-72
2022/09/04 00:33:45;;;;;;;1.67;0.90;;;;;;;18.02;100.00;101640.25;5033221;28;20551;-74
2022/09/04 00:36:12;;;;;;;3.00;1.10;;;;;;;17.75;100.00;101639.75;5013118;28;20446;-72
2022/09/04 00:38:44;;;;;;;1.57;1.20;;;;;;;17.23;100.00;101519.97;5035878;28;20480;-72
2022/09/04 00:41:31;;;;;;;2.40;1.27;;;;;;;18.07;100.00;101640.41;5030880;28;20437;-73
2022/09/04 00:44:24;;;;;;;1.73;1.20;;;;;;;17.98;100.00;101644.50;5035747;28;20434;-73
2022/09/04 00:46:52;;;;;;;1.53;1.03;;;;;;;17.94;100.00;101649.56;5008419;28;20462;-73
2022/09/04 00:49:26;;;;;;;3.67;1.23;;;;;;;17.89;100.00;101654.84;5033310;28;20454;-73
2022/09/04 00:52:12;;;;;;;2.97;1.00;;;;;;;17.73;100.00;101656.25;5035430;28;20434;-73
2022/09/04 00:55:03;;;;;;;2.30;1.10;;;;;;;17.76;100.00;101658.53;5031414;28;20442;-73
2022/09/04 00:58:06;;;;;;;1.10;1.00;;;;;;;17.56;100.00;101674.16;5032910;28;20523;-73
2022/09/04 01:00:32;;;;;;;3.07;1.17;;;;;;;17.75;100.00;101666.88;5035342;28;20442;-73
2022/09/04 01:03:17;;;;;;;2.73;1.00;;;;;;;16.65;100.00;101548.25;5027872;28;20441;-73
2022/09/04 01:06:20;;;;;;;1.90;1.23;;;;;;;17.67;100.00;101672.59;5015231;28;21249;-73
2022/09/04 01:08:54;;;;;;;1.40;1.13;;;;;;;17.68;100.00;101672.41;5043470;28;20473;-73
2022/09/04 01:11:42;;;;;;;2.50;1.10;;;;;;;17.45;100.00;101643.22;5044308;28;20433;-72
2022/09/04 01:14:12;;;;;;;2.20;1.37;;;;;;;17.64;100.00;101679.31;5037947;28;20931;-72
2022/09/04 01:17:04;;;;;;;1.00;0.93;;;;;;;17.69;100.00;101674.03;5036051;28;20453;-72
2022/09/04 01:19:48;;;;;;;2.03;1.40;;;;;;;17.56;100.00;101676.88;5035533;28;20472;-72
2022/09/04 01:22:27;;;;;;;1.67;0.90;;;;;;;17.56;100.00;101679.59;5039502;28;20441;-72
2022/09/04 01:25:04;;;;;;;1.83;1.10;;;;;;;17.37;100.00;101674.16;5035354;28;20469;-72
2022/09/04 01:27:53;;;;;;;1.43;1.17;;;;;;;17.37;100.00;101685.00;5023313;28;20469;-72
2022/09/04 01:30:20;;;;;;;3.97;1.00;;;;;;;17.29;100.00;101654.63;5040018;28;20469;-73
2022/09/04 01:33:00;;;;;;;1.10;1.00;;;;;;;17.20;100.00;101683.09;5032585;28;21283;-73
2022/09/04 01:35:51;;;;;;;2.80;1.00;;;;;;;16.97;100.00;101613.25;5018928;28;20921;-74
2022/09/04 01:38:38;;;;;;;1.30;1.03;;;;;;;17.40;100.00;101681.03;5036828;28;20865;-73
2022/09/04 01:41:13;;;;;;;1.13;0.90;;;;;;;17.23;100.00;101650.13;5034139;28;20461;-73
2022/09/04 01:43:38;;;;;;;1.70;1.10;;;;;;;17.48;100.00;101699.72;5041877;28;20951;-73
2022/09/04 01:46:20;;;;;;;1.20;1.10;;;;;;;16.81;100.00;101604.63;5036607;28;20521;-73
2022/09/04 01:49:00;;;;;;;5.53;1.33;;;;;;;17.24;100.00;101685.16;5034476;28;20290;-73
2022/09/04 01:51:40;;;;;;;0.93;0.83;;;;;;;17.33;100.00;101689.22;5032847;28;20430;-73
2022/09/04 01:54:19;;;;;;;2.20;1.10;;;;;;;17.08;100.00;101647.75;5034707;28;21049;-74
2022/09/04 01:56:57;;;;;;;4.20;1.13;;;;;;;17.10;100.00;101697.97;5016666;28;20465;-73
2022/09/04 01:59:31;;;;;;;2.33;1.40;;;;;;;16.69;100.00;101660.53;5033423;28;20431;-73
2022/09/04 02:02:00;;;;;;;3.03;1.03;;;;;;;17.13;100.00;101702.13;5015829;28;20858;-73
2022/09/04 02:04:58;;;;;;;1.20;1.10;;;;;;;17.06;100.00;101707.59;5033664;28;20461;-73
2022/09/04 02:07:37;;;;;;;0.97;0.83;;;;;;;16.79;100.00;101693.41;5040609;28;20474;-73
2022/09/04 02:10:33;;;;;;;1.10;1.00;;;;;;;16.96;100.00;101701.03;5016430;28;20480;-73
2022/09/04 02:13:42;;;;;;;1.87;1.10;;;;;;;17.08;100.00;101705.50;5036396;28;20449;-73
2022/09/04 02:16:19;;;;;;;2.40;1.27;;;;;;;17.13;100.00;101719.22;5028201;28;20456;-74
2022/09/04 02:19:20;;;;;;;1.07;0.97;;;;;;;16.98;100.00;101709.75;5016627;28;20507;-73
2022/09/04 02:22:04;;;;;;;1.30;1.00;;;;;;;15.63;100.00;101550.16;5012285;28;20443;-73
2022/09/04 02:24:49;;;;;;;2.10;1.10;;;;;;;16.85;100.00;101714.22;5036066;28;20442;-73
2022/09/04 02:27:52;;;;;;;1.90;1.30;;;;;;;16.82;100.00;101716.53;5037090;28;21005;-73
2022/09/04 02:30:19;;;;;;;2.60;1.10;;;;;;;16.74;100.00;101731.13;5023615;28;20468;-74
2022/09/04 02:32:57;;;;;;;1.30;1.00;;;;;;;16.32;100.00;101637.88;5035929;28;20442;-74
2022/09/04 02:35:46;;;;;;;1.67;1.33;;;;;;;16.83;100.00;101713.59;5015084;28;20556;-74
2022/09/04 02:38:42;;;;;;;1.33;1.23;;;;;;;15.96;100.00;101598.72;5031817;28;20473;-74
2022/09/04 02:41:27;;;;;;;2.40;1.10;;;;;;;16.65;100.00;101710.78;5017734;28;20867;-74
2022/09/04 02:44:20;;;;;;;3.17;1.20;;;;;;;16.36;100.00;101715.72;5033226;28;20988;-74
2022/09/04 02:46:57;;;;;;;2.50;1.13;;;;;;;16.30;100.00;101705.75;5036346;28;20432;-74
2022/09/04 02:49:40;;;;;;;1.30;1.00;;;;;;;16.22;100.00;101666.22;5037241;28;20970;-73
2022/09/04 02:52:30;;;;;;;2.60;1.10;;;;;;;16.32;100.00;101708.25;5029964;28;20456;-74
2022/09/04 02:55:05;;;;;;;2.73;1.23;;;;;;;16.41;100.00;101707.78;4997955;28;20442;-73
2022/09/04 02:57:39;;;;;;;1.30;1.00;;;;;;;16.18;100.00;101707.50;5032434;28;20456;-74
2022/09/04 03:00:27;;;;;;;1.20;1.00;;;;;;;16.47;100.00;101708.81;5029976;28;20530;-74
2022/09/04 03:03:06;;;;;;;2.20;1.23;;;;;;;16.48;100.00;101708.56;5036210;28;20442;-74
2022/09/04 03:05:40;;;;;;;2.67;1.17;;;;;;;16.47;100.00;101714.22;5034765;28;20449;-73
2022/09/04 03:08:15;;;;;;;1.63;1.37;;;;;;;16.60;100.00;101719.53;5027704;28;20473;-74
2022/09/04 03:10:47;;;;;;;2.93;1.50;;;;;;;15.86;100.00;101639.75;5039037;28;20430;-74
2022/09/04 03:13:37;;;;;;;1.20;1.10;;;;;;;16.15;100.00;101724.16;5014601;28;20866;-74
2022/09/04 03:16:09;;;;;;;3.23;1.47;;;;;;;16.12;100.00;101727.28;5011514;28;20438;-74
2022/09/04 03:18:57;;;;;;;1.10;1.00;;;;;;;15.76;100.00;101709.69;5041402;28;21132;-73
2022/09/04 03:21:31;;;;;;;1.73;1.13;;;;;;;15.68;100.00;101656.69;5035563;28;20527;-73
2022/09/04 03:24:02;;;;;;;2.60;1.20;;;;;;;16.08;100.00;101729.56;5023094;28;21101;-73
2022/09/04 03:26:49;;;;;;;1.83;1.33;;;;;;;13.42;100.00;101370.56;5034929;28;20430;-74
2022/09/04 03:29:15;;;;;;;1.73;1.30;;;;;;;15.61;100.00;101736.94;5025941;28;20881;-73
2022/09/04 03:32:17;;;;;;;2.80;1.50;;;;;;;15.88;100.00;101731.50;5015698;28;20454;-74
2022/09/04 03:35:07;;;;;;;2.03;1.23;;;;;;;15.55;100.00;101678.31;5038434;28;20217;-73
2022/09/04 03:37:35;;;;;;;2.43;1.20;;;;;;;16.04;100.00;101734.59;5015260;28;20461;-74
2022/09/04 03:40:37;;;;;;;3.40;1.43;;;;;;;16.20;100.00;101737.84;5033420;28;21184;-74
2022/09/04 03:43:15;;;;;;;1.70;1.30;;;;;;;16.33;100.00;101735.09;5032460;28;20818;-74
2022/09/04 03:46:02;;;;;;;2.23;1.30;;;;;;;16.18;100.00;101731.84;5030711;28;20426;-74
2022/09/04 03:48:45;;;;;;;2.57;1.30;;;;;;;14.66;100.00;101512.16;5031194;28;20477;-74
2022/09/04 03:51:29;;;;;;;1.63;1.30;;;;;;;16.16;100.00;101737.47;5026178;28;20445;-74
2022/09/04 03:54:04;;;;;;;1.03;0.90;;;;;;;16.39;100.00;101738.84;5034309;28;20434;-74
2022/09/04 03:56:35;;;;;;;3.23;1.50;;;;;;;16.19;100.00;101742.44;5032644;28;20494;-74
2022/09/04 03:59:08;;;;;;;2.20;1.30;;;;;;;14.82;100.00;101529.81;5039298;28;20533;-74
2022/09/04 04:01:54;;;;;;;2.07;1.30;;;;;;;16.16;100.00;101737.47;5038694;28;20430;-73
2022/09/04 04:04:42;;;;;;;1.83;1.33;;;;;;;16.22;100.00;101733.91;5041799;28;20448;-73
2022/09/04 04:07:34;;;;;;;3.20;1.07;;;;;;;15.99;100.00;101737.09;5041168;28;20508;-73
2022/09/04 04:10:32;;;;;;;1.73;1.17;;;;;;;15.86;100.00;101742.56;5041958;28;20439;-73
2022/09/04 04:13:03;;;;;;;2.77;1.10;;;;;;;16.25;100.00;101740.75;5034284;28;20446;-74
2022/09/04 04:15:36;;;;;;;2.00;1.10;;;;;;;13.46;100.00;101401.47;5029981;28;21468;-74
2022/09/04 04:18:26;;;;;;;3.00;1.40;;;;;;;15.84;100.00;101741.09;5033357;28;20449;-74
2022/09/04 04:20:58;;;;;;;1.47;1.20;;;;;;;14.63;100.00;101510.72;5032874;28;20430;-73
2022/09/04 04:23:55;;;;;;;1.63;1.20;;;;;;;16.18;100.00;101738.09;5028176;28;21376;-73
2022/09/04 04:26:38;;;;;;;1.33;1.23;;;;;;;13.82;100.00;101397.59;5032563;28;20474;-74
2022/09/04 04:29:46;;;;;;;1.63;1.10;;;;;;;14.75;100.00;101604.59;5030260;28;20868;-74
2022/09/04 04:33:14;;;;;;;3.17;1.23;;;;;;;15.99;100.00;101752.50;4932287;28;20533;-72
2022/09/04 04:35:53;;;;;;;3.23;1.37;;;;;;;15.88;100.00;101763.97;4937102;28;20445;-73
2022/09/04 04:38:54;;;;;;;1.20;1.03;;;;;;;16.02;100.00;101769.13;4950171;28;20552;-73
2022/09/04 04:42:02;;;;;;;2.53;1.43;;;;;;;16.12;100.00;101763.31;5021244;28;20441;-73
2022/09/04 04:45:48;;;;;;;1.80;1.00;;;;;;;15.12;100.00;101685.00;5035383;28;20442;-73
2022/09/04 04:47:22;;;;;;;1.43;0.90;;;;;;;15.49;100.00;101701.59;5039104;28;20473;-73
2022/09/04 04:50:09;;;;;;;1.63;1.27;;;;;;;16.09;100.00;101771.03;5042161;28;20425;-73
2022/09/04 04:53:13;;;;;;;3.70;1.03;;;;;;;15.88;100.00;101726.97;5037038;28;20426;-73
2022/09/04 04:56:13;;;;;;;1.97;1.30;;;;;;;15.55;100.00;101778.34;5036608;28;20461;-73
2022/09/04 04:58:57;;;;;;;1.67;1.20;;;;;;;15.80;100.00;101768.59;5021450;28;20458;-73
2022/09/04 05:01:33;;;;;;;3.00;1.20;;;;;;;15.67;100.00;101787.50;5033414;28;20441;-74
2022/09/04 05:04:09;;;;;;;4.23;1.13;;;;;;;16.02;100.00;101789.97;5036692;28;21114;-74
2022/09/04 05:06:57;;;;;;;3.07;1.20;;;;;;;16.11;100.00;101795.97;5031147;28;21911;-72
2022/09/04 05:09:55;;;;;;;3.03;1.10;;;;;;;15.93;100.00;101796.66;5040132;28;21041;-73
2022/09/04 05:12:42;;;;;;;0.93;0.93;;;;;;;15.99;100.00;101809.34;5039758;28;21005;-73
2022/09/04 05:15:19;;;;;;;1.57;1.30;;;;;;;16.04;100.00;101814.94;5040029;28;20433;-73
2022/09/04 05:17:53;;;;;;;2.80;1.53;;;;;;;15.53;100.00;101700.13;5035530;28;20996;-74
2022/09/04 05:20:37;;;;;;;3.13;1.60;;;;;;;16.39;100.00;101822.78;5033211;28;21132;-73
2022/09/04 05:23:58;;;;;;;2.77;1.30;;;;;;;16.19;100.00;101829.06;5032910;28;20957;-73
2022/09/04 05:26:42;;;;;;;2.50;1.30;;;;;;;16.13;100.00;101802.03;4960073;28;20563;-73
2022/09/04 05:29:27;;;;;;;1.27;1.10;;;;;;;15.92;100.00;101831.00;5038367;28;20557;-74
2022/09/04 05:32:20;;;;;;;1.30;1.10;;;;;;;16.04;100.00;101853.66;5037453;28;20445;-74
2022/09/04 05:35:19;;;;;;;1.33;1.17;;;;;;;16.12;100.00;101849.91;5029830;28;23342;-74
2022/09/04 05:37:59;;;;;;;3.30;1.70;;;;;;;16.31;100.00;101850.91;5036042;28;21179;-74
2022/09/04 05:40:37;;;;;;;2.00;1.23;;;;;;;15.94;100.00;101758.56;5038435;28;22686;-74
2022/09/04 05:43:22;;;;;;;1.80;1.13;;;;;;;16.22;100.00;101852.16;5037117;28;20446;-74
2022/09/04 05:45:59;;;;;;;1.80;1.30;;;;;;;15.38;100.00;101729.28;5039791;28;20437;-74
2022/09/04 05:48:27;;;;;;;2.10;1.20;;;;;;;15.97;100.00;101814.16;5019590;28;20828;-74
2022/09/04 05:51:14;;;;;;;1.30;1.00;;;;;;;16.04;100.00;101860.94;5039395;28;20438;-73
2022/09/04 05:54:14;;;;;;;1.87;1.30;;;;;;;16.27;100.00;101858.63;5023441;28;20532;-73
2022/09/04 05:57:11;;;;;;;4.30;1.43;;;;;;;16.08;100.00;101848.66;5041640;28;20437;-73
2022/09/04 05:59:43;;;;;;;1.37;1.20;;;;;;;15.96;100.00;101801.63;5036852;28;20446;-73
2022/09/04 06:02:20;;;;;;;5.80;1.40;;;;;;;16.26;100.00;101864.25;5039429;28;20442;-73
2022/09/04 06:05:20;;;;;;;1.83;1.13;;;;;;;16.03;100.00;101862.84;5037451;28;20579;-73
2022/09/04 06:08:04;;;;;;;3.87;1.60;;;;;;;16.17;100.00;101871.78;5033378;28;20473;-73
2022/09/04 06:10:39;;;;;;;3.17;1.53;;;;;;;15.99;100.00;101876.97;5035311;28;20465;-73
2022/09/04 06:13:30;;;;;;;2.80;1.57;;;;;;;16.04;100.00;101869.91;5018910;28;20969;-73
2022/09/04 06:16:15;;;;;;;1.43;1.30;;;;;;;16.02;100.00;101869.25;5040148;28;20422;-73
2022/09/04 06:19:05;;;;;;;2.63;1.63;;;;;;;15.51;100.00;101783.34;5037750;28;21287;-74
2022/09/04 06:21:42;;;;;;;1.27;1.17;;;;;;;16.12;100.00;101865.31;5034486;28;20567;-73
2022/09/04 06:24:38;;;;;;;2.80;1.20;;;;;;;16.45;100.00;101876.06;5013761;28;21032;-74
2022/09/04 06:27:16;;;;;;;1.97;1.50;;;;;;;16.38;100.00;101870.69;5011571;28;20458;-74
2022/09/04 06:29:44;;;;;;;1.57;1.47;;;;;;;16.37;100.00;101874.41;5036468;28;20448;-74
2022/09/04 06:32:36;;;;;;;2.57;1.70;;;;;;;16.48;100.00;101879.16;5039914;28;20438;-73
2022/09/04 06:35:23;;;;;;;3.30;1.13;;;;;;;16.68;100.00;101872.88;5036908;28;20523;-74
2022/09/04 06:38:11;;;;;;;1.27;1.17;;;;;;;16.81;100.00;101869.31;5034813;28;21225;-74
2022/09/04 06:41:01;;;;;;;1.67;1.27;;;;;;;16.66;100.00;101874.94;5016370;28;20426;-74
2022/09/04 06:43:51;;;;;;;4.30;1.50;;;;;;;16.20;100.00;101822.63;5020474;28;21007;-73
2022/09/04 06:46:22;;;;;;;2.20;1.40;;;;;;;16.56;100.00;101842.09;5018346;28;22818;-74
2022/09/04 06:48:53;;;;;;;1.30;1.13;;;;;;;16.87;100.00;101844.06;5038638;28;20470;-74
2022/09/04 06:51:57;;;;;;;1.87;1.40;;;;;;;17.24;100.00;101883.06;5037604;28;20444;-73
2022/09/04 06:54:33;;;;;;;1.37;1.27;;;;;;;17.19;100.00;101891.00;5037400;28;21057;-73
2022/09/04 06:57:18;;;;;;;1.73;1.20;;;;;;;17.06;100.00;101848.53;5021440;28;20454;-74
2022/09/04 07:00:02;;;;;;;2.20;2.00;;;;;;;17.35;100.00;101889.66;5043006;28;20480;-74
2022/09/04 07:02:40;;;;;;;3.27;1.30;;;;;;;17.34;100.00;101888.00;5044595;28;20438;-73
2022/09/04 07:05:27;;;;;;;2.43;1.60;;;;;;;17.31;100.00;101858.63;5047250;28;20438;-73
2022/09/04 07:08:07;;;;;;;2.90;1.40;;;;;;;17.54;100.00;101896.00;5044665;28;20523;-74
2022/09/04 07:10:42;;;;;;;3.87;2.03;;;;;;;17.39;100.00;101872.75;5045825;28;23192;-74
2022/09/04 07:13:34;;;;;;;2.07;1.30;;;;;;;17.54;100.00;101890.59;5042478;28;20429;-73
2022/09/04 07:16:24;;;;;;;1.30;1.20;;;;;;;17.18;100.00;101851.38;5007356;28;20438;-73
2022/09/04 07:19:19;;;;;;;2.37;1.40;;;;;;;17.56;100.00;101902.03;5043597;28;20511;-72
2022/09/04 07:22:03;;;;;;;6.63;1.70;;;;;;;16.56;100.00;101777.09;5018569;28;20438;-73
2022/09/04 07:24:59;;;;;;;2.33;1.50;;;;;;;17.42;100.00;101900.50;5042373;28;20477;-73
2022/09/04 07:27:37;;;;;;;2.20;1.50;;;;;;;17.29;100.00;101904.91;5039724;28;20466;-74
2022/09/04 07:30:07;;;;;;;2.30;1.43;;;;;;;17.51;100.00;101908.13;5030063;28;20445;-74
2022/09/04 07:32:43;;;;;;;3.63;1.43;;;;;;;17.74;100.00;101895.88;5037800;28;20537;-71
2022/09/04 07:35:24;;;;;;;2.60;1.70;;;;;;;17.94;100.00;101903.88;5034147;28;20441;-71
2022/09/04 07:38:23;;;;;;;4.83;1.63;;;;;;;17.71;100.00;101870.00;5034802;28;20461;-75
2022/09/04 07:40:58;;;;;;;2.57;1.67;;;;;;;18.03;100.00;101907.97;5032281;28;20529;-72
2022/09/04 07:43:31;;;;;;;1.93;1.57;;;;;;;17.96;100.00;101877.31;5021888;28;20788;-74
2022/09/04 07:46:09;;;;;;;4.40;1.93;;;;;;;17.96;100.00;101896.31;5039406;28;20438;-74
2022/09/04 07:48:41;;;;;;;3.07;1.70;;;;;;;18.05;100.00;101904.00;5015711;28;20538;-74
2022/09/04 07:51:12;;;;;;;3.10;1.63;;;;;;;18.15;100.00;101908.91;5019552;28;20465;-74
2022/09/04 07:53:52;;;;;;;2.97;1.70;;;;;;;18.15;100.00;101911.63;5035294;28;20418;-74
2022/09/04 07:56:29;;;;;;;3.87;1.57;;;;;;;18.18;100.00;101904.91;5021031;28;20474;-74
2022/09/04 07:59:11;;;;;;;1.77;1.60;;;;;;;18.31;100.00;101907.47;5019983;28;20464;-74
2022/09/04 08:02:07;;;;;;;1.67;1.37;;;;;;;18.13;100.00;101913.72;5033638;28;20437;-74
2022/09/04 08:05:09;;;;;;;1.90;1.50;;;;;;;18.30;100.00;101911.25;5040379;28;20441;-75
2022/09/04 08:07:37;;;;;;;1.80;1.70;;;;;;;18.44;100.00;101917.41;5036947;28;20468;-75
2022/09/04 08:10:09;;;;;;;3.00;1.97;;;;;;;18.58;100.00;101918.91;5042020;28;20528;-74
2022/09/04 08:12:47;;;;;;;2.60;1.50;;;;;;;18.68;100.00;101924.63;5040312;28;20444;-74
2022/09/04 08:15:14;;;;;;;1.90;1.30;;;;;;;18.63;100.00;101927.22;5034524;28;21157;-74
2022/09/04 08:18:11;;;;;;;2.50;1.70;;;;;;;18.33;100.00;101869.25;5041962;28;21021;-74
2022/09/04 08:20:55;;;;;;;2.47;1.70;;;;;;;18.77;100.00;101916.22;5048096;28;20434;-74
2022/09/04 08:23:42;;;;;;;2.90;1.87;;;;;;;18.71;100.00;101921.47;5043006;28;20462;-74
2022/09/04 08:26:16;;;;;;;2.77;1.80;;;;;;;18.84;100.00;101934.13;5046263;28;20807;-75
2022/09/04 08:28:59;;;;;;;2.40;1.70;;;;;;;18.83;100.00;101940.59;5043341;28;20484;-74
2022/09/04 08:31:36;;;;;;;2.90;1.50;;;;;;;18.81;100.00;101912.00;5037747;28;21003;-74
2022/09/04 08:34:08;;;;;;;4.30;1.43;;;;;;;19.07;100.00;101947.03;5038200;28;20942;-73
2022/09/04 08:36:36;;;;;;;2.10;1.70;;;;;;;19.14;100.00;101946.94;5027868;28;20526;-75
2022/09/04 08:39:08;;;;;;;2.73;1.30;;;;;;;18.86;100.00;101898.53;5032872;28;20436;-76
2022/09/04 08:41:44;;;;;;;1.77;1.50;;;;;;;19.20;100.00;101946.00;5033451;28;20441;-76
2022/09/04 08:44:50;;;;;;;1.67;1.20;;;;;;;19.33;100.00;101950.44;5044765;28;20925;-76
2022/09/04 08:47:56;;;;;;;3.47;1.57;;;;;;;19.36;100.00;101950.00;4959355;28;20466;-76
2022/09/04 08:50:22;;;;;;;2.70;1.43;;;;;;;19.51;100.00;101955.84;5044970;28;20437;-75
2022/09/04 08:53:21;;;;;;;3.20;1.60;;;;;;;19.51;100.00;101955.00;5039514;28;20434;-76
2022/09/04 08:55:49;;;;;;;4.47;1.23;;;;;;;19.50;100.00;101947.88;5038326;28;20452;-76
2022/09/04 08:58:52;;;;;;;1.90;1.50;;;;;;;19.67;100.00;101954.38;5044482;28;20453;-75
2022/09/04 09:01:40;;;;;;;1.50;1.30;;;;;;;19.75;100.00;101959.47;5022391;28;20851;-76
2022/09/04 09:04:24;;;;;;;3.20;1.70;;;;;;;19.78;100.00;101963.63;5039244;28;20433;-75
2022/09/04 09:07:08;;;;;;;2.67;2.00;;;;;;;19.77;100.00;101965.53;5036290;28;20488;-77
2022/09/04 09:09:54;;;;;;;4.60;1.80;;;;;;;19.79;100.00;101957.16;5047244;28;20465;-77
2022/09/04 09:12:25;;;;;;;2.90;1.63;;;;;;;19.81;100.00;101953.09;5050178;28;20436;-76
2022/09/04 09:15:23;;;;;;;2.07;1.70;;;;;;;19.60;100.00;101910.91;5025071;28;20431;-76
2022/09/04 09:18:10;;;;;;;4.47;1.70;;;;;;;20.00;100.00;101948.41;5030409;28;20466;-76
2022/09/04 09:20:42;;;;;;;2.50;1.77;;;;;;;20.06;100.00;101952.91;5043960;28;20421;-76
2022/09/04 09:23:14;;;;;;;2.13;1.60;;;;;;;20.09;100.00;101946.16;5034970;28;20430;-76
2022/09/04 09:26:01;;;;;;;1.97;1.40;;;;;;;20.27;100.00;101953.41;5046940;28;21102;-76
2022/09/04 09:29:04;;;;;;;1.67;1.57;;;;;;;20.39;100.00;101948.78;5040759;28;20476;-76
2022/09/04 09:32:15;;;;;;;3.43;1.67;;;;;;;20.48;100.00;101955.56;5037170;28;21106;-77
2022/09/04 09:35:02;;;;;;;1.90;1.67;;;;;;;20.56;100.00;101950.81;5039016;28;20442;-77
2022/09/04 09:38:05;;;;;;;2.20;1.43;;;;;;;20.68;100.00;101954.34;5027939;28;20534;-77
2022/09/04 09:41:18;;;;;;;1.90;1.30;;;;;;;20.89;100.00;101951.00;5046410;28;20434;-75
2022/09/04 09:44:02;;;;;;;2.00;1.63;;;;;;;20.87;100.00;101944.13;4962745;28;20445;-75
2022/09/04 09:47:06;;;;;;;2.00;1.80;;;;;;;20.87;100.00;101947.69;5040805;28;20525;-75
2022/09/04 09:49:56;;;;;;;2.80;1.73;;;;;;;21.01;100.00;101948.25;5045322;28;20853;-75
2022/09/04 09:52:43;;;;;;;1.87;1.73;;;;;;;21.12;100.00;101936.47;5043740;28;20568;-75
2022/09/04 09:55:08;;;;;;;4.27;1.63;;;;;;;21.22;100.00;101933.94;5041875;28;20491;-76
2022/09/04 09:58:01;;;;;;;2.90;1.30;;;;;;;21.12;100.00;101935.66;5025434;28;20458;-75
2022/09/04 10:00:59;;;;;;;2.70;2.17;;;;;;;21.02;100.00;101909.00;5048568;28;20188;-75
2022/09/04 10:03:37;;;;;;;3.53;1.80;;;;;;;21.26;100.00;101934.25;5038306;28;20442;-75
2022/09/04 10:06:26;;;;;;;2.20;1.37;;;;;;;21.25;100.00;101904.50;5028146;28;20533;-75
2022/09/04 10:09:22;;;;;;;1.47;1.37;;;;;;;21.51;100.00;101927.69;5045276;28;20470;-76
2022/09/04 10:12:25;;;;;;;2.93;1.40;;;;;;;21.54;100.00;101927.19;5019611;28;20499;-75
2022/09/04 10:15:24;;;;;;;2.13;1.50;;;;;;;21.74;100.00;101926.72;5044504;28;20426;-76
2022/09/04 10:18:05;;;;;;;1.80;1.50;;;;;;;21.76;100.00;101921.84;5045876;28;20454;-75
2022/09/04 10:20:54;;;;;;;3.07;2.00;;;;;;;21.87;100.00;101921.75;5047520;28;20437;-75
2022/09/04 10:23:40;;;;;;;3.03;1.87;;;;;;;21.99;100.00;101918.13;5037037;28;20431;-77
2022/09/04 10:26:13;;;;;;;1.50;1.30;;;;;;;22.01;100.00;101924.13;5029082;28;20429;-75
2022/09/04 10:29:01;;;;;;;1.40;1.30;;;;;;;22.12;100.00;101923.22;5044619;28;20474;-75
2022/09/04 10:31:43;;;;;;;1.43;1.33;;;;;;;22.12;100.00;101915.03;5043738;28;20479;-75
2022/09/04 10:34:18;;;;;;;3.23;1.33;;;;;;;22.29;100.00;101924.06;5044487;28;20457;-75
2022/09/04 10:36:53;;;;;;;2.60;1.30;;;;;;;22.23;100.00;101913.31;5043804;28;20905;-76
2022/09/04 10:42:34;;;;;;;1.93;1.60;;;;;;;22.56;100.00;101928.81;5043495;28;20483;-75
2022/09/04 10:45:24;;;;;;;1.67;1.50;;;;;;;22.59;100.00;101922.00;5026121;28;20510;-75
2022/09/04 10:48:01;;;;;;;1.87;1.37;;;;;;;22.23;100.00;101877.78;5040906;28;20497;-75
2022/09/04 10:51:08;;;;;;;1.77;1.27;;;;;;;22.56;100.00;101926.91;5043187;28;20482;-75
2022/09/04 10:54:16;;;;;;;2.13;1.40;;;;;;;22.59;100.00;101932.94;5043368;28;20511;-76
2022/09/04 10:56:56;;;;;;;3.00;1.30;;;;;;;22.89;100.00;101914.19;5017513;28;20525;-76
2022/09/04 10:59:45;;;;;;;2.20;1.23;;;;;;;22.91;100.00;101916.66;5029482;28;20831;-76
2022/09/04 11:02:32;;;;;;;2.30;1.50;;;;;;;23.09;100.00;101929.25;5036695;28;20437;-76
2022/09/04 11:05:36;;;;;;;1.30;1.10;;;;;;;22.99;100.00;101910.78;5044673;28;20432;-76
2022/09/04 11:08:35;;;;;;;3.80;1.47;;;;;;;23.11;100.00;101919.66;5041724;28;20476;-76
2022/09/04 11:11:30;;;;;;;1.73;1.40;;;;;;;23.17;100.00;101915.06;5020691;28;20950;-76
2022/09/04 11:14:14;;;;;;;2.27;1.00;;;;;;;23.36;100.00;101918.28;5043240;28;20437;-76
2022/09/04 11:17:05;;;;;;;1.83;1.27;;;;;;;23.42;100.00;101926.28;5043374;28;20430;-76
2022/09/04 11:19:49;;;;;;;1.53;1.37;;;;;;;23.40;100.00;101920.28;5044129;28;20450;-76
2022/09/04 11:22:33;;;;;;;3.63;1.30;;;;;;;23.48;100.00;101921.69;5039800;28;20492;-75
2022/09/04 11:25:09;;;;;;;2.10;1.30;;;;;;;23.55;100.00;101902.31;5042680;28;20435;-76
2022/09/04 11:27:50;;;;;;;1.10;1.00;;;;;;;23.83;100.00;101912.16;5044340;28;20520;-76
2022/09/04 11:31:01;;;;;;;1.33;1.10;;;;;;;23.85;100.00;101893.56;5043761;28;20425;-75
2022/09/04 11:34:03;;;;;;;1.07;0.90;;;;;;;23.91;100.00;101914.44;5039989;28;20496;-76
2022/09/04 11:36:34;;;;;;;1.43;1.33;;;;;;;23.94;100.00;101915.81;5039488;28;20438;-76
2022/09/04 11:39:47;;;;;;;2.13;1.23;;;;;;;23.79;100.00;101898.19;5046724;28;20861;-75
2022/09/04 11:42:28;;;;;;;1.93;1.17;;;;;;;24.06;100.00;101909.06;4968306;28;21272;-75
2022/09/04 11:45:22;;;;;;;1.83;1.20;;;;;;;23.98;100.00;101906.78;5043024;28;20461;-77
2022/09/04 11:47:54;;;;;;;2.57;1.10;;;;;;;24.04;100.00;101916.72;5004933;28;21086;-76
2022/09/04 11:50:55;;;;;;;1.30;1.20;;;;;;;23.95;100.00;101906.50;5040668;28;20453;-76
2022/09/04 11:53:52;;;;;;;1.83;1.30;;;;;;;24.00;100.00;101921.06;5044539;28;20438;-76
2022/09/04 11:57:12;;;;;;;2.00;1.27;;;;;;;24.00;100.00;101899.16;5023767;28;20440;-76
2022/09/04 12:00:04;;;;;;;2.40;1.53;;;;;;;24.13;100.00;101930.78;4976556;28;20426;-75
2022/09/04 12:02:52;;;;;;;2.90;1.47;;;;;;;24.24;100.00;101887.78;5045279;28;20434;-75
2022/09/04 12:05:39;;;;;;;2.27;1.50;;;;;;;24.42;100.00;101919.44;5018793;28;20821;-74
2022/09/04 12:08:40;;;;;;;3.17;1.17;;;;;;;24.41;100.00;101926.81;5045981;28;20466;-77
2022/09/04 12:11:36;;;;;;;2.10;1.30;;;;;;;24.47;100.00;101922.22;5044641;28;20426;-76
2022/09/04 12:14:29;;;;;;;1.37;1.20;;;;;;;24.43;100.00;101921.94;5043428;28;20434;-76
2022/09/04 12:17:11;;;;;;;2.10;1.23;;;;;;;24.64;100.00;101925.59;5048088;28;20442;-77
2022/09/04 12:20:06;;;;;;;1.90;1.30;;;;;;;24.59;100.00;101931.09;5023072;28;20433;-77
2022/09/04 12:23:08;;;;;;;1.13;1.03;;;;;;;24.74;100.00;101924.84;5042996;28;20515;-76
2022/09/04 12:26:05;;;;;;;1.60;1.33;;;;;;;24.83;100.00;101917.75;5045910;28;20998;-76
2022/09/04 12:28:51;;;;;;;1.37;1.20;;;;;;;24.76;100.00;101928.97;5045079;28;20473;-75
2022/09/04 12:31:31;;;;;;;1.67;1.37;;;;;;;24.80;100.00;101923.75;5045477;28;20448;-76
2022/09/04 12:34:18;;;;;;;1.93;1.03;;;;;;;24.46;100.00;101880.25;5043876;28;20508;-76
2022/09/04 12:37:18;;;;;;;1.83;1.40;;;;;;;25.07;100.00;101925.50;5022555;28;20992;-76
2022/09/04 12:39:53;;;;;;;1.60;1.20;;;;;;;25.27;100.00;101930.25;5044086;28;20861;-74
2022/09/04 12:42:30;;;;;;;1.67;1.37;;;;;;;25.18;100.00;101905.25;5047225;28;20432;-74